Map

Track Data

SID SEASON NUMBER BASIN SUBBASIN NAME ISO_TIME NATURE LAT LON WMO_WIND WMO_PRES WMO_AGENCY TRACK_TYPE DIST2LAND LANDFALL IFLAG USA_AGENCY USA_ATCF_ID USA_LAT USA_LON USA_RECORD USA_STATUS USA_WIND USA_PRES USA_SSHS USA_R34_NE USA_R34_SE USA_R34_SW USA_R34_NW USA_R50_NE USA_R50_SE USA_R50_SW USA_R50_NW USA_R64_NE USA_R64_SE USA_R64_SW USA_R64_NW USA_POCI USA_ROCI USA_RMW USA_EYE TOKYO_LAT TOKYO_LON TOKYO_GRADE TOKYO_WIND TOKYO_PRES TOKYO_R50_DIR TOKYO_R50_LONG TOKYO_R50_SHORT TOKYO_R30_DIR TOKYO_R30_LONG TOKYO_R30_SHORT TOKYO_LAND CMA_LAT CMA_LON CMA_CAT CMA_WIND CMA_PRES HKO_LAT HKO_LON HKO_CAT HKO_WIND HKO_PRES NEWDELHI_LAT NEWDELHI_LON NEWDELHI_GRADE NEWDELHI_WIND NEWDELHI_PRES NEWDELHI_CI NEWDELHI_DP NEWDELHI_POCI REUNION_LAT REUNION_LON REUNION_TYPE REUNION_WIND REUNION_PRES REUNION_TNUM REUNION_CI REUNION_RMW REUNION_R34_NE REUNION_R34_SE REUNION_R34_SW REUNION_R34_NW REUNION_R50_NE REUNION_R50_SE REUNION_R50_SW REUNION_R50_NW REUNION_R64_NE REUNION_R64_SE REUNION_R64_SW REUNION_R64_NW BOM_LAT BOM_LON BOM_TYPE BOM_WIND BOM_PRES BOM_TNUM BOM_CI BOM_RMW BOM_R34_NE BOM_R34_SE BOM_R34_SW BOM_R34_NW BOM_R50_NE BOM_R50_SE BOM_R50_SW BOM_R50_NW BOM_R64_NE BOM_R64_SE BOM_R64_SW BOM_R64_NW BOM_ROCI BOM_POCI BOM_EYE BOM_POS_METHOD BOM_PRES_METHOD NADI_LAT NADI_LON NADI_CAT NADI_WIND NADI_PRES WELLINGTON_LAT WELLINGTON_LON WELLINGTON_WIND WELLINGTON_PRES DS824_LAT DS824_LON DS824_STAGE DS824_WIND DS824_PRES TD9636_LAT TD9636_LON TD9636_STAGE TD9636_WIND TD9636_PRES TD9635_LAT TD9635_LON TD9635_WIND TD9635_PRES TD9635_ROCI NEUMANN_LAT NEUMANN_LON NEUMANN_CLASS NEUMANN_WIND NEUMANN_PRES MLC_LAT MLC_LON MLC_CLASS MLC_WIND MLC_PRES USA_GUST BOM_GUST BOM_GUST_PER REUNION_GUST REUNION_GUST_PER USA_SEAHGT USA_SEARAD_NE USA_SEARAD_SE USA_SEARAD_SW USA_SEARAD_NW STORM_SPEED STORM_DIR
2022182N20130 2022 34 WP MM AERE 2022-06-30 18:00:00 NR 19.9000 130.200 PROVISIONAL 846 846 O_____________ tcvitals WP052022 19.9000 130.200 29 1000 -1 1005 160 155 8 63
2022182N20130 2022 34 WP MM AERE 2022-06-30 21:00:00 NR 20.0827 130.582 PROVISIONAL 891 891 P_____________ WP052022 20.0827 130.582 32 999 -1 1006 187 142 8 59
2022182N20130 2022 34 WP MM AERE 2022-07-01 00:00:00 NR 20.3000 130.900 PROVISIONAL 926 926 O_____________ tcvitals WP052022 20.3000 130.900 35 998 0 65 130 100 45 1007 215 130 7 44
2022182N20130 2022 34 WP MM AERE 2022-07-01 03:00:00 NR 20.5899 131.103 PROVISIONAL 954 954 P_____________ WP052022 20.5899 131.103 37 997 0 72 122 1006 182 87 8 22
2022182N20130 2022 34 WP MM AERE 2022-07-01 06:00:00 NR 21.0000 131.200 PROVISIONAL 975 975 O_____________ tcvitals WP052022 21.0000 131.200 39 997 0 80 115 1006 150 45 10 8
2022182N20130 2022 34 WP MM AERE 2022-07-01 09:00:00 NR 21.5924 131.252 PROVISIONAL 1005 982 P_____________ WP052022 21.5924 131.252 39 997 0 80 115 1006 138 45 12 1
2022182N20130 2022 34 WP MM AERE 2022-07-01 12:00:00 NR 22.2000 131.200 PROVISIONAL 982 938 O_____________ tcvitals WP052022 22.2000 131.200 39 997 0 80 115 1006 126 45 10 349
2022182N20130 2022 34 WP MM AERE 2022-07-01 15:00:00 NR 22.5775 131.037 PROVISIONAL 938 893 P_____________ WP052022 22.5775 131.037 42 996 0 82 105 1006 120 47 9 335
2022182N20130 2022 34 WP MM AERE 2022-07-01 18:00:00 NR 23.0000 130.800 PROVISIONAL 893 815 O_____________ tcvitals WP052022 23.0000 130.800 45 995 0 85 95 75 1007 115 50 12 340
2022182N20130 2022 34 WP MM AERE 2022-07-01 21:00:00 NR 23.7124 130.580 PROVISIONAL 815 726 P_____________ WP052022 23.7124 130.580 45 994 0 97 110 80 1006 112 47 16 343
2022182N20130 2022 34 WP MM AERE 2022-07-02 00:00:00 NR 24.5000 130.300 PROVISIONAL 726 651 O_____________ tcvitals WP052022 24.5000 130.300 45 994 0 110 126 55 85 1006 110 45 16 339
2022182N20130 2022 34 WP MM AERE 2022-07-02 03:00:00 NR 25.1872 129.952 PROVISIONAL 651 592 P_____________ WP052022 25.1872 129.952 45 994 0 107 118 57 87 1006 110 45 15 331
2022182N20130 2022 34 WP MM AERE 2022-07-02 06:00:00 NR 25.8000 129.500 PROVISIONAL 592 550 O_____________ tcvitals WP052022 25.8000 129.500 45 994 0 105 110 60 90 1006 110 45 15 321
2022182N20130 2022 34 WP MM AERE 2022-07-02 09:00:00 NR 26.3529 128.900 PROVISIONAL 542 519 P_____________ WP052022 26.3529 128.900 42 995 0 107 110 62 80 1006 110 45 15 313
2022182N20130 2022 34 WP MM AERE 2022-07-02 12:00:00 NR 26.8000 128.300 PROVISIONAL 523 509 O_____________ tcvitals WP052022 26.8000 128.300 39 996 0 110 110 65 70 1006 110 45 12 310
2022182N20130 2022 34 WP MM AERE 2022-07-02 15:00:00 NR 27.1448 127.832 PROVISIONAL 513 498 P_____________ WP052022 27.1448 127.832 39 996 0 95 97 65 65 1006 122 45 9 310
2022182N20130 2022 34 WP MM AERE 2022-07-02 18:00:00 NR 27.4000 127.500 PROVISIONAL 498 484 O_____________ tcvitals WP052022 27.4000 127.500 39 997 0 80 85 65 60 1006 135 45 7 316
2022182N20130 2022 34 WP MM AERE 2022-07-02 21:00:00 NR 27.6148 127.312 PROVISIONAL 490 477 P_____________ WP052022 27.6148 127.312 37 997 0 80 77 62 60 1005 145 45 5 326
2022182N20130 2022 34 WP MM AERE 2022-07-03 00:00:00 NR 27.8000 127.200 PROVISIONAL 477 465 O_____________ tcvitals WP052022 27.8000 127.200 35 998 0 80 70 60 60 1005 155 45 4 330
2022182N20130 2022 34 WP MM AERE 2022-07-03 03:00:00 NR 28.0000 127.057 PROVISIONAL 465 461 P_____________ WP052022 28.0000 127.057 32 998 -1 1004 155 45 5 326
2022182N20130 2022 34 WP MM AERE 2022-07-03 06:00:00 NR 28.2000 126.900 PROVISIONAL 461 459 O_____________ tcvitals WP052022 28.2000 126.900 29 999 -1 1004 155 45 5 317
2022182N20130 2022 34 WP MM AERE 2022-07-03 09:00:00 NR 28.3851 126.655 PROVISIONAL 459 442 P_____________ WP052022 28.3851 126.655 29 999 -1 1003 145 45 5 319
2022182N20130 2022 34 WP MM AERE 2022-07-03 12:00:00 NR 28.6000 126.500 PROVISIONAL 442 430 O_____________ tcvitals WP052022 28.6000 126.500 29 1000 -1 1003 135 45 5 351
2022182N20130 2022 34 WP MM AERE 2022-07-03 15:00:00 NR 28.8699 126.568 PROVISIONAL 430 395 P_____________ WP052022 28.8699 126.568 29 997 -1 1003 140 45 7 24
2022182N20130 2022 34 WP MM AERE 2022-07-03 18:00:00 NR 29.2000 126.800 PROVISIONAL 395 346 O_____________ tcvitals WP052022 29.2000 126.800 29 995 -1 1004 145 45 9 35
2022182N20130 2022 34 WP MM AERE 2022-07-03 21:00:00 NR 29.5853 127.149 PROVISIONAL 346 290 P_____________ WP052022 29.5853 127.149 29 994 -1 1003 145 45 10 37
2022182N20130 2022 34 WP MM AERE 2022-07-04 00:00:00 NR 30.0000 127.500 PROVISIONAL 290 263 O_____________ tcvitals WP052022 30.0000 127.500 29 994 -1 1003 145 45 9 28
2022182N20130 2022 34 WP MM AERE 2022-07-04 03:00:00 NR 30.4072 127.651 PROVISIONAL 254 232 P_____________ WP052022 30.4072 127.651 27 996 -1 1002 125 45 8 18
2022182N20130 2022 34 WP MM AERE 2022-07-04 06:00:00 NR 30.8000 127.800 PROVISIONAL 232 199 O_____________ tcvitals WP052022 30.8000 127.800 25 998 -1 1002 105 45 8 29
2022182N20130 2022 34 WP MM AERE 2022-07-04 09:00:00 NR 31.1125 128.106 PROVISIONAL 199 161 P_____________ WP052022 31.1125 128.106 25 999 -1 1002 100 42 9 41
2022182N20130 2022 34 WP MM AERE 2022-07-04 12:00:00 NR 31.5000 128.500 PROVISIONAL 162 93 O_____________ tcvitals WP052022 31.5000 128.500 25 1000 -1 1002 95 40 13 33
2022182N20130 2022 34 WP MM AERE 2022-07-04 15:00:00 NR 32.1723 128.919 PROVISIONAL 87 21 P_____________ WP052022 32.1723 128.919 25 998 -1 1003 102 40 15 30
2022182N20130 2022 34 WP MM AERE 2022-07-04 18:00:00 NR 32.8000 129.400 PROVISIONAL 21 0 O_____________ tcvitals WP052022 32.8000 129.400 25 997 -1 1004 110 40 12 43
2022182N20130 2022 34 WP MM AERE 2022-07-04 21:00:00 NR 33.0821 129.914 PROVISIONAL 0 0 P_____________ WP052022 33.0821 129.914 25 999 -1 1004 105 40 10 67
2022182N20130 2022 34 WP MM AERE 2022-07-05 00:00:00 NR 33.2000 130.500 PROVISIONAL 0 0 O_____________ tcvitals WP052022 33.2000 130.500 25 1002 -1 1005 100 40 11 77
2022182N20130 2022 34 WP MM AERE 2022-07-05 03:00:00 NR 33.3226 131.185 PROVISIONAL 0 0 P_____________ WP052022 33.3226 131.185 25 1002 -1 1004 97 40 12 80
2022182N20130 2022 34 WP MM AERE 2022-07-05 06:00:00 NR 33.4000 131.900 PROVISIONAL 21 0 O_____________ tcvitals WP052022 33.4000 131.900 25 1002 -1 1004 95 40 10 83
2022182N20130 2022 34 WP MM AERE 2022-07-05 09:00:00 NR 33.4459 132.409 PROVISIONAL 0 0 P_____________ WP052022 33.4459 132.409 25 1002 -1 1004 107 30 11 85
2022182N20130 2022 34 WP MM AERE 2022-07-05 12:00:00 NR 33.5000 133.200 PROVISIONAL 0 0 O_____________ tcvitals WP052022 33.5000 133.200 25 1003 -1 1005 120 20 20 85
2022182N20130 2022 34 WP MM AERE 2022-07-05 15:00:00 NR 33.6352 134.773 PROVISIONAL 22 0 P_____________ WP052022 33.6352 134.773 25 1003 -1 1005 120 35 28 86
2022182N20130 2022 34 WP MM AERE 2022-07-05 18:00:00 NR 33.7000 136.500 PROVISIONAL 38 38 O_____________ tcvitals WP052022 33.7000 136.500 25 1004 -1 1005 120 50 24 93
2022182N20130 2022 34 WP MM AERE 2022-07-05 21:00:00 NR 33.5152 137.684 PROVISIONAL 115 115 P_____________ WP052022 33.5152 137.684 25 1004 -1 1005 120 50 19 99
2022182N20130 2022 34 WP MM AERE 2022-07-06 00:00:00 NR 33.4000 138.800 PROVISIONAL 133 130 O_____________ tcvitals WP052022 33.4000 138.800 25 1004 -1 1006 120 50 22 86
2022182N20130 2022 34 WP MM AERE 2022-07-06 03:00:00 NR 33.6809 140.327 PROVISIONAL 138 138 P_____________ WP052022 33.6809 140.327 25 1003 -1 1006 120 55 25 76
2022182N20130 2022 34 WP MM AERE 2022-07-06 06:00:00 NR 34.0000 141.700 PROVISIONAL 178 178 O_____________ tcvitals WP052022 34.0000 141.700 25 1002 -1 1006 120 60 18 78
2022182N20130 2022 34 WP MM AERE 2022-07-06 09:00:00 NR 34.0565 142.406 PROVISIONAL 219 219 P_____________ WP052022 34.0565 142.406 27 1001 -1 1006 120 60 10 90
2022182N20130 2022 34 WP MM AERE 2022-07-06 12:00:00 NR 34.0000 142.900 PROVISIONAL 262 262 O_____________ tcvitals WP052022 34.0000 142.900 29 1000 -1 1006 120 60 11 99
2022182N20130 2022 34 WP MM AERE 2022-07-06 15:00:00 NR 33.8930 143.666 PROVISIONAL 324 324 P_____________ WP052022 33.8930 143.666 29 998 -1 1006 120 60 13 99
2022182N20130 2022 34 WP MM AERE 2022-07-06 18:00:00 NR 33.8000 144.400 PROVISIONAL 382 382 O_____________ tcvitals WP052022 33.8000 144.400 29 997 -1 1006 120 60 11 94
2022182N20130 2022 34 WP MM AERE 2022-07-06 21:00:00 NR 33.8198 144.997 PROVISIONAL 429 429 P_____________ WP052022 33.8198 144.997 32 995 -1 1006 140 74 8 83
2022182N20130 2022 34 WP MM AERE 2022-07-07 00:00:00 NR 33.9000 145.400 PROVISIONAL 456 456 O_____________ tcvitals WP052022 33.9000 145.400 35 993 0 140 140 105 60 1006 160 89 5 68
2022182N20130 2022 34 WP MM AERE 2022-07-07 03:00:00 NR 33.9995 145.530 PROVISIONAL 459 454 P_____________ WP052022 33.9995 145.530 35 993 0 105 117 87 72 1006 160 89 3 40
2022182N20130 2022 34 WP MM AERE 2022-07-07 06:00:00 NR 34.1000 145.600 PROVISIONAL 463 463 O_____________ tcvitals WP052022 34.1000 145.600 35 994 0 70 95 70 85 1006 160 89 4 69
2022182N20130 2022 34 WP MM AERE 2022-07-07 09:00:00 NR 34.1278 145.937 PROVISIONAL 488 488 P_____________ WP052022 34.1278 145.937 30 995 -1 1006 155 94 5 79
2022182N20130 2022 34 WP MM AERE 2022-07-07 12:00:00 NR 34.2000 146.200 PROVISIONAL 510 499 O_____________ tcvitals WP052022 34.2000 146.200 25 996 -1 1006 150 100 4 31
2022182N20130 2022 34 WP MM AERE 2022-07-07 15:00:00 NR 34.4868 146.193 PROVISIONAL 499 466 P_____________ WP052022 34.4868 146.193 30 992 -1 1006 200 100 6 334
2022182N20130 2022 34 WP MM AERE 2022-07-07 18:00:00 NR 34.7000 145.900 PROVISIONAL 466 412 O_____________ tcvitals WP052022 34.7000 145.900 35 988 0 145 1006 250 100 8 272
2022182N20130 2022 34 WP MM AERE 2022-07-07 21:00:00 NR 34.5167 145.195 PROVISIONAL 412 370 P_____________ WP052022 34.5167 145.195 35 988 0 145 1006 250 100 11 250
2022182N20130 2022 34 WP MM AERE 2022-07-08 00:00:00 NR 34.3000 144.600 PROVISIONAL 370 365 O_____________ tcvitals WP052022 34.3000 144.600 35 989 0 145 1006 250 100 4 259
2022182N20130 2022 34 WP MM AERE 2022-07-08 03:00:00 NR 34.4496 144.778 PROVISIONAL 382 378 P_____________ WP052022 34.4496 144.778 32 989 -1 1006 250 100 4 48
2022182N20130 2022 34 WP MM AERE 2022-07-08 06:00:00 NR 34.6000 145.000 PROVISIONAL 391 357 O_____________ tcvitals WP052022 34.6000 145.000 29 990 -1 1006 250 100 3 255
2022182N20130 2022 34 WP MM AERE 2022-07-08 09:00:00 NR 34.3786 144.461 PROVISIONAL 357 327 P_____________ WP052022 34.3786 144.461 29 990 -1 1006 245 90 9 244
2022182N20130 2022 34 WP MM AERE 2022-07-08 12:00:00 NR 34.2000 144.000 PROVISIONAL 327 327 O_____________ tcvitals WP052022 34.2000 144.000 29 990 -1 1006 240 80 1 278
2022182N20130 2022 34 WP MM AERE 2022-07-08 15:00:00 NR 34.3883 144.374 PROVISIONAL 349 349 P_____________ WP052022 34.3883 144.374 29 990 -1 1004 220 70 10 51
2022182N20130 2022 34 WP MM AERE 2022-07-08 18:00:00 NR 34.8000 144.900 PROVISIONAL 375 372 O_____________ tcvitals WP052022 34.8000 144.900 29 990 -1 1003 200 60 11 30
2022182N20130 2022 34 WP MM AERE 2022-07-08 21:00:00 NR 35.3244 145.039 PROVISIONAL 372 360 P_____________ WP052022 35.3244 145.039 29 990 -1 1003 200 60 11 0
2022182N20130 2022 34 WP MM AERE 2022-07-09 00:00:00 NR 35.9000 144.900 PROVISIONAL 360 O_____________ tcvitals WP052022 35.9000 144.900 29 991 -1 1004 200 60 12 349

Digital Typhoon Data and Search

About IBTrACS Database

This database is a web-friendly format of International Best Track Archive for Climate Stewardship (IBTrACS), a global best track data archive curated by NOAA dating back to 1842.

Updated: 2022-08-18